createdAt,value
2016-09-02T00:00:31.897Z,0
2016-09-02T00:01:31.046Z,0
2016-09-02T00:02:31.017Z,0
2016-09-02T00:03:31.045Z,0
2016-09-02T00:04:31.064Z,0
2016-09-02T00:05:31.117Z,0
2016-09-02T00:06:31.127Z,0
2016-09-02T00:07:31.059Z,0
2016-09-02T00:08:31.077Z,0
2016-09-02T00:09:31.058Z,0
2016-09-02T00:10:31.065Z,0
2016-09-02T00:11:31.053Z,0
2016-09-02T00:12:31.197Z,0
2016-09-02T00:13:31.100Z,0
2016-09-02T00:14:31.108Z,0
2016-09-02T00:15:31.103Z,0
2016-09-02T00:16:31.086Z,0
2016-09-02T00:17:31.241Z,0
2016-09-02T00:18:31.135Z,0
2016-09-02T00:19:31.159Z,0
2016-09-02T00:20:31.097Z,0
2016-09-02T00:21:31.099Z,0
2016-09-02T00:22:36.181Z,0
2016-09-02T00:23:31.059Z,0
2016-09-02T00:24:31.419Z,0
2016-09-02T00:25:31.435Z,0
2016-09-02T00:26:31.947Z,0
2016-09-02T00:27:31.927Z,0
2016-09-02T00:28:31.732Z,0
2016-09-02T00:29:31.709Z,0
2016-09-02T00:30:31.847Z,0
2016-09-02T00:31:31.916Z,0
2016-09-02T00:32:31.816Z,0
2016-09-02T00:33:31.058Z,0
2016-09-02T00:34:31.271Z,0
2016-09-02T00:35:31.077Z,0
2016-09-02T00:36:31.047Z,0
2016-09-02T00:37:31.076Z,0
2016-09-02T00:38:31.268Z,0
2016-09-02T00:39:31.087Z,0
2016-09-02T00:40:31.049Z,0
2016-09-02T00:41:31.081Z,0
2016-09-02T00:42:31.119Z,0
2016-09-02T00:43:31.096Z,0
2016-09-02T00:44:31.178Z,0
2016-09-02T00:45:31.081Z,0
2016-09-02T00:46:31.173Z,0
2016-09-02T00:47:31.049Z,0
2016-09-02T00:48:31.083Z,0
2016-09-02T00:49:31.074Z,0
2016-09-02T00:50:31.097Z,0
2016-09-02T00:51:31.135Z,0
2016-09-02T00:52:31.080Z,0
2016-09-02T00:53:31.150Z,0
2016-09-02T00:54:31.061Z,0
2016-09-02T00:55:31.133Z,0
2016-09-02T00:56:31.091Z,0
2016-09-02T00:57:31.146Z,0
2016-09-02T00:58:31.127Z,0
2016-09-02T00:59:31.124Z,0
2016-09-02T01:00:31.214Z,0
2016-09-02T01:01:31.205Z,0
2016-09-02T01:02:31.226Z,0
2016-09-02T01:03:31.182Z,0
2016-09-02T01:04:31.137Z,0
2016-09-02T01:05:31.100Z,0
2016-09-02T01:06:31.073Z,0
2016-09-02T01:07:31.109Z,0
2016-09-02T01:08:31.197Z,0
2016-09-02T01:09:31.083Z,0
2016-09-02T01:10:31.092Z,0
2016-09-02T01:11:31.153Z,0
2016-09-02T01:12:31.126Z,0
2016-09-02T01:13:31.095Z,0
2016-09-02T01:14:31.112Z,0
2016-09-02T01:15:31.143Z,0
2016-09-02T01:16:31.124Z,0
2016-09-02T01:17:31.099Z,0
2016-09-02T01:18:31.075Z,0
2016-09-02T01:19:31.054Z,0
2016-09-02T01:20:31.117Z,0
2016-09-02T01:21:31.142Z,0
2016-09-02T01:22:31.113Z,0
2016-09-02T01:23:31.173Z,0
2016-09-02T01:24:31.069Z,0
2016-09-02T01:25:31.698Z,0
2016-09-02T01:26:31.538Z,0
2016-09-02T01:27:31.895Z,0
2016-09-02T01:28:31.895Z,0
2016-09-02T01:29:31.884Z,0
2016-09-02T01:30:31.670Z,0
2016-09-02T01:31:31.138Z,0
2016-09-02T01:32:31.141Z,0
2016-09-02T01:33:31.118Z,0
2016-09-02T01:34:31.093Z,0
2016-09-02T01:35:31.922Z,0
2016-09-02T01:36:31.124Z,0
2016-09-02T01:37:31.131Z,0
2016-09-02T01:38:31.442Z,0
2016-09-02T01:39:31.249Z,0
2016-09-02T01:40:31.200Z,0
2016-09-02T01:41:31.100Z,0
2016-09-02T01:42:31.171Z,0
2016-09-02T01:43:31.144Z,0
2016-09-02T01:44:31.096Z,0
2016-09-02T01:45:31.104Z,0
2016-09-02T01:46:31.120Z,0
2016-09-02T01:47:31.115Z,0
2016-09-02T01:48:31.124Z,0
2016-09-02T01:49:31.097Z,0
2016-09-02T01:50:31.178Z,0
2016-09-02T01:51:31.111Z,0
2016-09-02T01:52:31.143Z,0
2016-09-02T01:53:31.111Z,0
2016-09-02T01:54:31.118Z,0
2016-09-02T01:55:31.280Z,0
2016-09-02T01:56:31.334Z,0
2016-09-02T01:57:31.159Z,0
2016-09-02T01:58:31.131Z,0
2016-09-02T01:59:31.112Z,0
2016-09-02T02:00:31.131Z,0
2016-09-02T02:01:31.097Z,0
2016-09-02T02:02:31.141Z,0
2016-09-02T02:03:31.141Z,0
2016-09-02T02:04:31.151Z,0
2016-09-02T02:05:31.142Z,0
2016-09-02T02:06:31.115Z,0
2016-09-02T02:07:31.125Z,0
2016-09-02T02:08:31.151Z,0
2016-09-02T02:09:31.126Z,0
2016-09-02T02:10:31.134Z,0
2016-09-02T02:11:31.142Z,0
2016-09-02T02:12:31.148Z,0
2016-09-02T02:13:31.191Z,0
2016-09-02T02:14:31.159Z,0
2016-09-02T02:15:31.194Z,0
2016-09-02T02:16:31.172Z,0
2016-09-02T02:17:31.180Z,0
2016-09-02T02:18:31.132Z,0
2016-09-02T02:19:31.158Z,0
2016-09-02T02:20:31.147Z,0
2016-09-02T02:21:31.157Z,0
2016-09-02T02:22:31.123Z,0
2016-09-02T02:23:31.147Z,0
2016-09-02T02:24:31.143Z,0
2016-09-02T02:25:31.118Z,0
2016-09-02T02:26:31.142Z,0
2016-09-02T02:27:31.117Z,0
2016-09-02T02:28:32.028Z,0
2016-09-02T02:29:31.218Z,0
2016-09-02T02:30:31.166Z,0
2016-09-02T02:31:31.114Z,0
2016-09-02T02:32:31.141Z,0
2016-09-02T02:33:31.128Z,0
2016-09-02T02:34:31.144Z,0
2016-09-02T02:35:31.230Z,0
2016-09-02T02:36:31.190Z,0
2016-09-02T02:37:31.193Z,0
2016-09-02T02:38:31.172Z,0
2016-09-02T02:39:31.204Z,0
2016-09-02T02:40:31.172Z,0
2016-09-02T02:41:31.248Z,0
2016-09-02T02:42:31.193Z,0
2016-09-02T02:43:31.158Z,0
2016-09-02T02:44:31.253Z,0
2016-09-02T02:45:31.174Z,0
2016-09-02T02:46:31.221Z,0
2016-09-02T02:47:31.287Z,0
2016-09-02T02:48:31.148Z,0
2016-09-02T02:49:31.195Z,0
2016-09-02T02:50:31.173Z,0
2016-09-02T02:51:31.175Z,0
2016-09-02T02:52:31.165Z,0
2016-09-02T02:53:31.180Z,0
2016-09-02T02:54:31.157Z,0
2016-09-02T02:55:31.179Z,0
2016-09-02T02:56:31.654Z,0
2016-09-02T02:57:31.177Z,0
2016-09-02T02:58:31.810Z,0
2016-09-02T02:59:31.862Z,0
2016-09-02T03:00:31.955Z,0
2016-09-02T03:01:31.906Z,0
2016-09-02T03:02:31.964Z,0
2016-09-02T03:03:31.546Z,0
2016-09-02T03:04:31.221Z,0
2016-09-02T03:05:31.174Z,0
2016-09-02T03:06:31.192Z,0
2016-09-02T03:07:31.172Z,0
2016-09-02T03:08:31.161Z,0
2016-09-02T03:09:31.160Z,0
2016-09-02T03:10:31.160Z,0
2016-09-02T03:11:31.250Z,0
2016-09-02T03:12:31.176Z,0
2016-09-02T03:13:31.184Z,0
2016-09-02T03:14:31.176Z,0
2016-09-02T03:15:31.195Z,0
2016-09-02T03:16:31.248Z,0
2016-09-02T03:17:31.623Z,0
2016-09-02T03:18:31.173Z,0
2016-09-02T03:19:31.180Z,0
2016-09-02T03:20:31.305Z,0
2016-09-02T03:21:31.198Z,0
2016-09-02T03:22:31.194Z,0
2016-09-02T03:23:31.340Z,0
2016-09-02T03:24:31.780Z,0
2016-09-02T03:25:31.205Z,0
2016-09-02T03:26:31.643Z,0
2016-09-02T03:27:31.227Z,0
2016-09-02T03:28:31.207Z,0
2016-09-02T03:29:31.191Z,0
2016-09-02T03:30:31.207Z,0
2016-09-02T03:31:31.180Z,0
2016-09-02T03:32:31.391Z,0
2016-09-02T03:33:31.222Z,0
2016-09-02T03:34:31.209Z,0
2016-09-02T03:35:31.387Z,0
2016-09-02T03:36:31.196Z,0
2016-09-02T03:37:31.186Z,0
2016-09-02T03:38:31.194Z,0
2016-09-02T03:39:31.178Z,0
2016-09-02T03:40:31.193Z,0
2016-09-02T03:41:31.257Z,0
2016-09-02T03:42:31.192Z,0
2016-09-02T03:43:31.208Z,0
2016-09-02T03:44:31.236Z,0
2016-09-02T03:45:31.212Z,0
2016-09-02T03:46:31.250Z,0
2016-09-02T03:47:31.196Z,0
2016-09-02T03:48:31.221Z,0
2016-09-02T03:49:31.196Z,0
2016-09-02T03:50:31.210Z,0
2016-09-02T03:51:31.220Z,0
2016-09-02T03:52:31.177Z,0
2016-09-02T03:53:31.197Z,0
2016-09-02T03:54:31.252Z,0
2016-09-02T03:55:31.227Z,0
2016-09-02T03:56:31.285Z,0
2016-09-02T03:57:31.254Z,0
2016-09-02T03:58:31.268Z,0
2016-09-02T03:59:31.389Z,0
2016-09-02T04:00:31.272Z,0
2016-09-02T04:01:31.223Z,0
2016-09-02T04:02:31.481Z,0
2016-09-02T04:03:31.203Z,0
2016-09-02T04:04:31.235Z,0
2016-09-02T04:05:31.217Z,0
2016-09-02T04:06:31.243Z,0
2016-09-02T04:07:31.210Z,0
2016-09-02T04:08:31.454Z,0
2016-09-02T04:09:31.281Z,0
2016-09-02T04:10:31.217Z,0
2016-09-02T04:11:31.725Z,0
2016-09-02T04:12:31.274Z,0
2016-09-02T04:13:31.270Z,0
2016-09-02T04:14:31.258Z,0
2016-09-02T04:15:31.209Z,0
2016-09-02T04:16:31.259Z,0
2016-09-02T04:17:31.500Z,0
2016-09-02T04:18:31.231Z,0
2016-09-02T04:19:31.274Z,0
2016-09-02T04:20:31.244Z,0
2016-09-02T04:21:31.259Z,0
2016-09-02T04:22:31.306Z,0
2016-09-02T04:23:31.233Z,0
2016-09-02T04:24:31.268Z,0
2016-09-02T04:25:31.270Z,0
2016-09-02T04:26:31.705Z,0
2016-09-02T04:27:31.274Z,0
2016-09-02T04:28:31.258Z,0
2016-09-02T04:29:31.510Z,0
2016-09-02T04:30:31.260Z,0
2016-09-02T04:31:31.260Z,0
2016-09-02T04:32:31.754Z,5
2016-09-02T04:33:31.258Z,5
2016-09-02T04:34:31.273Z,5
2016-09-02T04:35:31.278Z,5
2016-09-02T04:36:31.293Z,5
2016-09-02T04:37:31.241Z,5
2016-09-02T04:38:31.637Z,5
2016-09-02T04:39:31.277Z,5
2016-09-02T04:40:31.256Z,5
2016-09-02T04:41:31.725Z,5
2016-09-02T04:42:31.256Z,5
2016-09-02T04:43:31.292Z,5
2016-09-02T04:44:31.239Z,5
2016-09-02T04:45:31.258Z,5
2016-09-02T04:46:31.303Z,5
2016-09-02T04:47:31.273Z,5
2016-09-02T04:48:31.279Z,5
2016-09-02T04:49:31.258Z,10
2016-09-02T04:50:31.260Z,10
2016-09-02T04:51:31.279Z,10
2016-09-02T04:52:31.301Z,10
2016-09-02T04:53:31.305Z,10
2016-09-02T04:54:31.316Z,10
2016-09-02T04:55:31.384Z,15
2016-09-02T04:56:31.332Z,15
2016-09-02T04:57:31.322Z,15
2016-09-02T04:58:31.344Z,15
2016-09-02T04:59:31.814Z,15
2016-09-02T05:00:31.882Z,15
2016-09-02T05:01:31.629Z,20
2016-09-02T05:02:31.876Z,20
2016-09-02T05:03:31.976Z,20
2016-09-02T05:04:31.288Z,20
2016-09-02T05:05:31.354Z,20
2016-09-02T05:06:31.291Z,25
2016-09-02T05:07:31.382Z,25
2016-09-02T05:08:31.946Z,25
2016-09-02T05:09:31.312Z,25
2016-09-02T05:10:31.403Z,25
2016-09-02T05:11:31.368Z,30
2016-09-02T05:12:31.283Z,30
2016-09-02T05:13:31.272Z,35
2016-09-02T05:14:31.301Z,40
2016-09-02T05:15:31.303Z,45
2016-09-02T05:16:31.339Z,45
2016-09-02T05:17:31.381Z,45
2016-09-02T05:18:31.294Z,45
2016-09-02T05:19:31.271Z,45
2016-09-02T05:20:31.294Z,45
2016-09-02T05:21:31.286Z,50
2016-09-02T05:22:31.297Z,50
2016-09-02T05:23:31.668Z,50
2016-09-02T05:24:31.325Z,50
2016-09-02T05:25:31.592Z,50
2016-09-02T05:26:31.317Z,50
2016-09-02T05:27:31.357Z,50
2016-09-02T05:28:31.375Z,55
2016-09-02T05:29:31.337Z,60
2016-09-02T05:30:31.390Z,70
2016-09-02T05:31:31.604Z,75
2016-09-02T05:32:31.413Z,80
2016-09-02T05:33:31.370Z,85
2016-09-02T05:34:31.623Z,90
2016-09-02T05:35:31.755Z,95
2016-09-02T05:36:31.384Z,100
2016-09-02T05:37:31.334Z,110
2016-09-02T05:38:31.345Z,115
2016-09-02T05:39:31.446Z,115
2016-09-02T05:40:31.938Z,115
2016-09-02T05:41:31.373Z,120
2016-09-02T05:42:31.393Z,125
2016-09-02T05:43:33.897Z,125
2016-09-02T05:44:31.549Z,130
2016-09-02T05:45:31.333Z,130
2016-09-02T05:46:31.346Z,135
2016-09-02T05:47:31.297Z,135
2016-09-02T05:48:31.271Z,135
2016-09-02T05:49:31.278Z,135
2016-09-02T05:50:31.275Z,130
2016-09-02T05:51:31.292Z,130
2016-09-02T05:52:31.335Z,130
2016-09-02T05:53:31.292Z,130
2016-09-02T05:54:31.724Z,130
2016-09-02T05:55:31.977Z,130
2016-09-02T05:56:31.385Z,130
2016-09-02T05:57:31.321Z,130
2016-09-02T05:58:47.166Z,130
2016-09-02T05:59:31.741Z,130
2016-09-02T06:00:31.733Z,135
2016-09-02T06:01:31.930Z,135
2016-09-02T06:02:32.026Z,130
2016-09-02T06:03:32.147Z,130
2016-09-02T06:04:31.595Z,130
2016-09-02T06:05:31.748Z,130
2016-09-02T06:06:31.349Z,125
2016-09-02T06:07:31.369Z,120
2016-09-02T06:08:31.387Z,115
2016-09-02T06:09:31.767Z,115
2016-09-02T06:10:31.359Z,120
2016-09-02T06:11:31.312Z,125
2016-09-02T06:12:31.321Z,125
2016-09-02T06:13:31.407Z,130
2016-09-02T06:14:31.373Z,130
2016-09-02T06:15:31.381Z,130
2016-09-02T06:16:31.322Z,135
2016-09-02T06:17:31.308Z,140
2016-09-02T06:18:31.351Z,145
2016-09-02T06:19:31.328Z,150
2016-09-02T06:20:31.413Z,155
2016-09-02T06:21:31.337Z,160
2016-09-02T06:22:31.355Z,160
2016-09-02T06:23:31.352Z,165
2016-09-02T06:24:31.369Z,170
2016-09-02T06:25:31.640Z,175
2016-09-02T06:26:31.398Z,175
2016-09-02T06:27:31.432Z,180
2016-09-02T06:28:31.415Z,185
2016-09-02T06:29:32.002Z,185
2016-09-02T06:30:31.341Z,185
2016-09-02T06:31:31.398Z,190
2016-09-02T06:32:31.357Z,190
2016-09-02T06:33:31.365Z,195
2016-09-02T06:34:31.337Z,200
2016-09-02T06:35:31.413Z,205
2016-09-02T06:36:31.323Z,210
2016-09-02T06:37:31.370Z,210
2016-09-02T06:38:31.350Z,210
2016-09-02T06:39:31.386Z,210
2016-09-02T06:40:31.409Z,215
2016-09-02T06:41:31.398Z,220
2016-09-02T06:42:31.408Z,225
2016-09-02T06:43:31.387Z,230
2016-09-02T06:44:31.417Z,235
2016-09-02T06:45:31.438Z,235
2016-09-02T06:46:31.461Z,240
2016-09-02T06:47:31.458Z,245
2016-09-02T06:48:31.421Z,250
2016-09-02T06:49:31.365Z,245
2016-09-02T06:50:31.793Z,250
2016-09-02T06:51:31.390Z,245
2016-09-02T06:52:31.374Z,245
2016-09-02T06:53:31.370Z,240
2016-09-02T06:54:31.372Z,240
2016-09-02T06:55:31.410Z,235
2016-09-02T06:56:31.383Z,230
2016-09-02T06:57:31.353Z,230
2016-09-02T06:58:31.358Z,230
2016-09-02T06:59:31.390Z,230
2016-09-02T07:00:32.042Z,225
2016-09-02T07:01:31.389Z,235
2016-09-02T07:02:31.382Z,235
2016-09-02T07:03:31.447Z,230
2016-09-02T07:04:31.367Z,230
2016-09-02T07:05:31.388Z,225
2016-09-02T07:06:31.369Z,225
2016-09-02T07:07:31.444Z,230
2016-09-02T07:08:31.385Z,230
2016-09-02T07:09:31.369Z,240
2016-09-02T07:10:31.404Z,245
2016-09-02T07:11:31.397Z,240
2016-09-02T07:12:31.405Z,240
2016-09-02T07:13:31.429Z,240
2016-09-02T07:14:31.418Z,245
2016-09-02T07:15:31.478Z,245
2016-09-02T07:16:31.481Z,250
2016-09-02T07:17:31.384Z,250
2016-09-02T07:18:31.419Z,255
2016-09-02T07:19:31.428Z,260
2016-09-02T07:20:31.452Z,265
2016-09-02T07:21:31.425Z,265
2016-09-02T07:22:31.404Z,270
2016-09-02T07:23:31.511Z,265
2016-09-02T07:24:31.418Z,270
2016-09-02T07:25:31.444Z,270
2016-09-02T07:26:31.389Z,265
2016-09-02T07:27:31.452Z,265
2016-09-02T07:28:31.371Z,260
2016-09-02T07:29:31.449Z,255
2016-09-02T07:30:31.383Z,250
2016-09-02T07:31:31.434Z,250
2016-09-02T07:32:31.410Z,250
2016-09-02T07:33:31.492Z,245
2016-09-02T07:34:31.430Z,245
2016-09-02T07:35:33.042Z,255
2016-09-02T07:36:31.435Z,255
2016-09-02T07:37:31.422Z,265
2016-09-02T07:38:31.449Z,270
2016-09-02T07:39:31.405Z,270
2016-09-02T07:40:31.420Z,275
2016-09-02T07:41:31.427Z,275
2016-09-02T07:42:31.409Z,285
2016-09-02T07:43:31.414Z,295
2016-09-02T07:44:31.513Z,300
2016-09-02T07:45:31.383Z,305
2016-09-02T07:46:31.477Z,315
2016-09-02T07:47:31.421Z,325
2016-09-02T07:48:31.418Z,330
2016-09-02T07:49:31.515Z,335
2016-09-02T07:50:31.566Z,340
2016-09-02T07:51:31.446Z,340
2016-09-02T07:52:31.403Z,340
2016-09-02T07:53:31.402Z,340
2016-09-02T07:54:31.400Z,335
2016-09-02T07:55:31.458Z,335
2016-09-02T07:56:31.436Z,330
2016-09-02T07:57:31.789Z,335
2016-09-02T07:58:31.465Z,330
2016-09-02T07:59:31.619Z,330
2016-09-02T08:00:31.471Z,320
2016-09-02T08:01:31.997Z,320
2016-09-02T08:02:32.321Z,315
2016-09-02T08:03:32.522Z,300
2016-09-02T08:04:31.467Z,285
2016-09-02T08:05:31.720Z,270
2016-09-02T08:06:31.630Z,275
2016-09-02T08:07:31.801Z,260
2016-09-02T08:08:31.498Z,255
2016-09-02T08:09:31.481Z,250
2016-09-02T08:10:31.616Z,255
2016-09-02T08:11:31.464Z,260
2016-09-02T08:12:31.469Z,265
2016-09-02T08:13:31.446Z,275
2016-09-02T08:14:31.483Z,290
2016-09-02T08:15:31.416Z,290
2016-09-02T08:16:31.452Z,290
2016-09-02T08:17:31.417Z,280
2016-09-02T08:18:31.467Z,275
2016-09-02T08:19:31.477Z,295
2016-09-02T08:20:31.843Z,310
2016-09-02T08:21:31.432Z,310
2016-09-02T08:22:31.451Z,305
2016-09-02T08:23:31.477Z,295
2016-09-02T08:24:31.538Z,275
2016-09-02T08:25:31.894Z,255
2016-09-02T08:26:31.496Z,255
2016-09-02T08:27:31.445Z,255
2016-09-02T08:28:31.542Z,255
2016-09-02T08:29:31.453Z,275
2016-09-02T08:30:31.517Z,285
2016-09-02T08:31:31.452Z,295
2016-09-02T08:32:31.529Z,300
2016-09-02T08:33:31.480Z,295
2016-09-02T08:34:31.492Z,295
2016-09-02T08:35:31.477Z,280
2016-09-02T08:36:31.477Z,290
2016-09-02T08:37:31.511Z,285
2016-09-02T08:38:31.529Z,285
2016-09-02T08:39:31.523Z,285
2016-09-02T08:40:31.495Z,285
2016-09-02T08:41:31.510Z,290
2016-09-02T08:42:31.514Z,290
2016-09-02T08:43:31.477Z,265
2016-09-02T08:44:31.468Z,265
2016-09-02T08:45:31.492Z,265
2016-09-02T08:46:31.529Z,260
2016-09-02T08:47:31.476Z,265
2016-09-02T08:48:31.514Z,265
2016-09-02T08:49:31.496Z,260
2016-09-02T08:51:14.849Z,260
2016-09-02T08:51:31.494Z,260
2016-09-02T08:53:26.929Z,255
2016-09-02T08:53:37.186Z,255
2016-09-02T08:54:48.297Z,255
2016-09-02T08:55:59.982Z,250
2016-09-02T08:57:38.217Z,250
2016-09-02T08:58:56.280Z,250
2016-09-02T08:59:29.732Z,245
2016-09-02T09:01:04.822Z,240
2016-09-02T09:02:28.439Z,245
2016-09-02T09:03:53.366Z,245
2016-09-02T09:05:15.069Z,265
2016-09-02T09:06:37.888Z,270
2016-09-02T09:07:59.929Z,275
2016-09-02T09:09:28.744Z,275
2016-09-02T09:10:54.361Z,265
2016-09-02T09:12:15.408Z,250
2016-09-02T09:13:39.978Z,255
2016-09-02T09:15:05.376Z,250
2016-09-02T09:16:28.750Z,245
2016-09-02T09:17:51.876Z,240
2016-09-02T09:19:14.834Z,240
2016-09-02T09:20:36.316Z,235
2016-09-02T09:21:57.168Z,230
2016-09-02T09:23:19.265Z,230
2016-09-02T09:24:43.569Z,230
2016-09-02T09:26:06.974Z,225
2016-09-02T09:27:29.890Z,220
2016-09-02T09:28:52.989Z,210
2016-09-02T09:30:14.073Z,215
2016-09-02T09:31:38.070Z,215
2016-09-02T09:33:02.662Z,200
2016-09-02T09:34:29.053Z,195
2016-09-02T09:35:52.426Z,200
2016-09-02T09:37:12.184Z,195
2016-09-02T09:38:18.997Z,195
2016-09-02T09:39:41.431Z,195
2016-09-02T09:41:01.497Z,210
2016-09-02T09:42:25.788Z,205
2016-09-02T09:43:48.761Z,190
2016-09-02T09:45:11.195Z,195
2016-09-02T09:46:36.812Z,200
2016-09-02T09:47:59.782Z,205
2016-09-02T09:49:22.072Z,205
2016-09-02T09:50:43.424Z,215
2016-09-02T09:52:05.633Z,220
2016-09-02T09:53:27.018Z,200
2016-09-02T09:54:51.783Z,195
2016-09-02T09:56:13.471Z,205
2016-09-02T09:57:33.991Z,235
2016-09-02T09:58:52.929Z,200
2016-09-02T09:59:47.587Z,210
2016-09-02T10:01:26.344Z,195
2016-09-02T10:03:02.933Z,205
2016-09-02T10:04:21.573Z,195
2016-09-02T10:04:51.012Z,195
2016-09-02T10:06:37.142Z,190
2016-09-02T10:07:53.883Z,190
2016-09-02T10:09:10.152Z,195
2016-09-02T10:10:29.470Z,200
2016-09-02T10:11:46.708Z,210
2016-09-02T10:13:03.560Z,225
2016-09-02T10:14:19.841Z,230
2016-09-02T10:15:36.196Z,215
2016-09-02T10:16:53.341Z,215
2016-09-02T10:18:08.754Z,230
2016-09-02T10:19:26.034Z,230
2016-09-02T10:20:40.530Z,205
2016-09-02T10:21:58.161Z,185
2016-09-02T10:23:13.452Z,175
2016-09-02T10:24:29.361Z,185
2016-09-02T10:25:45.013Z,195
2016-09-02T10:27:01.997Z,195
2016-09-02T10:28:19.872Z,185
2016-09-02T10:29:39.044Z,180
2016-09-02T10:30:56.390Z,175
2016-09-02T10:32:11.808Z,170
2016-09-02T10:33:28.563Z,170
2016-09-02T10:34:45.893Z,165
2016-09-02T10:36:06.779Z,170
2016-09-02T10:37:23.454Z,175
2016-09-02T10:38:42.204Z,165
2016-09-02T10:40:03.440Z,165
2016-09-02T10:41:27.232Z,160
2016-09-02T10:42:46.625Z,165
2016-09-02T10:44:07.628Z,165
2016-09-02T10:45:31.185Z,165
2016-09-02T10:46:51.328Z,170
2016-09-02T10:48:10.139Z,165
2016-09-02T10:49:31.723Z,165
2016-09-02T10:50:56.175Z,170
2016-09-02T10:52:16.640Z,185
2016-09-02T10:53:37.682Z,195
2016-09-02T10:54:58.203Z,200
2016-09-02T10:56:17.986Z,205
2016-09-02T10:57:37.668Z,200
2016-09-02T10:59:00.064Z,205
2016-09-02T11:00:18.338Z,205
2016-09-02T11:01:40.002Z,200
2016-09-02T11:03:02.096Z,195
2016-09-02T11:04:24.251Z,185
2016-09-02T11:06:11.883Z,185
2016-09-02T11:06:29.606Z,185
2016-09-02T11:07:54.852Z,185
2016-09-02T11:10:02.780Z,180
2016-09-02T11:11:27.521Z,180
2016-09-02T11:13:43.354Z,175
2016-09-02T11:20:02.443Z,170
2016-09-02T11:23:47.620Z,175
2016-09-02T11:25:11.776Z,175
2016-09-02T11:26:04.386Z,175
2016-09-02T11:27:05.440Z,175
2016-09-02T11:27:37.682Z,175
2016-09-02T11:29:07.023Z,175
2016-09-02T11:30:15.045Z,180
2016-09-02T11:31:48.521Z,180
2016-09-02T11:33:22.302Z,180
2016-09-02T11:34:56.064Z,165
2016-09-02T11:36:15.472Z,160
2016-09-02T11:37:32.849Z,155
2016-09-02T11:38:48.960Z,145
2016-09-02T11:40:05.537Z,140
2016-09-02T11:41:21.247Z,145
2016-09-02T11:42:36.528Z,155
2016-09-02T11:43:54.569Z,160
2016-09-02T11:45:13.612Z,160
2016-09-02T11:46:31.732Z,160
2016-09-02T11:47:49.629Z,155
2016-09-02T11:49:09.340Z,160
2016-09-02T11:50:29.989Z,155
2016-09-02T11:51:53.665Z,160
2016-09-02T11:53:12.987Z,155
2016-09-02T11:54:35.016Z,155
2016-09-02T11:56:01.898Z,160
2016-09-02T11:57:26.712Z,160
2016-09-02T11:59:22.527Z,160
2016-09-02T12:00:46.426Z,160
2016-09-02T12:02:08.076Z,155
2016-09-02T12:03:29.816Z,155
2016-09-02T12:04:52.983Z,155
2016-09-02T12:06:13.941Z,155
2016-09-02T12:07:34.770Z,155
2016-09-02T12:08:56.353Z,155
2016-09-02T12:10:13.908Z,150
2016-09-02T12:11:31.505Z,150
2016-09-02T12:12:49.568Z,145
2016-09-02T12:14:09.525Z,145
2016-09-02T12:15:27.778Z,145
2016-09-02T12:16:45.938Z,145
2016-09-02T12:18:06.961Z,145
2016-09-02T12:19:24.546Z,145
2016-09-02T12:20:44.962Z,145
2016-09-02T12:22:05.728Z,145
2016-09-02T12:23:28.340Z,150
2016-09-02T12:24:49.806Z,145
2016-09-02T12:26:12.075Z,145
2016-09-02T12:27:33.059Z,150
2016-09-02T12:28:58.061Z,155
2016-09-02T12:30:23.027Z,155
2016-09-02T12:31:47.688Z,155
2016-09-02T12:33:09.772Z,150
2016-09-02T12:34:29.288Z,150
2016-09-02T12:35:52.789Z,150
2016-09-02T12:37:14.502Z,150
2016-09-02T12:38:35.907Z,155
2016-09-02T12:39:57.825Z,155
2016-09-02T12:41:18.990Z,155
2016-09-02T12:42:36.558Z,165
2016-09-02T12:43:59.152Z,160
2016-09-02T12:45:21.659Z,160
2016-09-02T12:46:44.756Z,160
2016-09-02T12:48:09.112Z,160
2016-09-02T12:49:31.552Z,155
2016-09-02T12:50:54.941Z,155
2016-09-02T12:52:16.570Z,160
2016-09-02T12:53:41.377Z,155
2016-09-02T12:55:04.671Z,155
2016-09-02T12:55:16.252Z,155
2016-09-02T12:56:53.137Z,155
2016-09-02T12:58:16.940Z,155
2016-09-02T12:59:38.700Z,155
2016-09-02T13:01:01.850Z,155
2016-09-02T13:02:24.189Z,155
2016-09-02T13:03:43.966Z,150
2016-09-02T13:05:04.949Z,150
2016-09-02T13:06:27.438Z,150
2016-09-02T13:07:48.836Z,150
2016-09-02T13:09:08.822Z,150
2016-09-02T13:10:27.591Z,150
2016-09-02T13:11:49.231Z,150
2016-09-02T13:13:09.517Z,145
2016-09-02T13:14:31.238Z,145
2016-09-02T13:15:54.249Z,145
2016-09-02T13:17:15.719Z,150
2016-09-02T13:18:38.794Z,150
2016-09-02T13:19:58.189Z,150
2016-09-02T13:20:43.810Z,150
2016-09-02T13:21:20.428Z,150
2016-09-02T13:22:20.467Z,150
2016-09-02T13:23:20.384Z,145
2016-09-02T13:24:20.410Z,150
2016-09-02T13:25:20.411Z,150
2016-09-02T13:26:20.405Z,150
2016-09-02T13:27:20.402Z,150
2016-09-02T13:28:20.409Z,150
2016-09-02T13:29:20.457Z,150
2016-09-02T13:30:20.402Z,150
2016-09-02T13:31:20.397Z,150
2016-09-02T13:32:20.454Z,150
2016-09-02T13:33:20.409Z,150
2016-09-02T13:34:20.475Z,150
2016-09-02T13:35:20.539Z,150
2016-09-02T13:36:20.387Z,150
2016-09-02T13:37:20.435Z,150
2016-09-02T13:38:20.429Z,150
2016-09-02T13:39:20.479Z,155
2016-09-02T13:40:20.469Z,155
2016-09-02T13:41:20.465Z,155
2016-09-02T13:42:20.454Z,150
2016-09-02T13:43:20.448Z,140
2016-09-02T13:44:20.442Z,140
2016-09-02T13:45:20.461Z,140
2016-09-02T13:46:20.472Z,135
2016-09-02T13:47:20.543Z,135
2016-09-02T13:48:20.528Z,135
2016-09-02T13:49:20.584Z,135
2016-09-02T13:50:40.455Z,135
2016-09-02T13:51:30.826Z,135
2016-09-02T13:52:32.646Z,135
2016-09-02T13:53:20.577Z,140
2016-09-02T13:54:20.545Z,140
2016-09-02T13:55:20.586Z,140
2016-09-02T13:56:20.461Z,140
2016-09-02T13:57:20.558Z,140
2016-09-02T13:58:20.440Z,145
2016-09-02T13:59:20.457Z,140
2016-09-02T14:00:20.466Z,145
2016-09-02T14:01:20.458Z,145
2016-09-02T14:02:20.442Z,140
2016-09-02T14:03:20.412Z,150
2016-09-02T14:04:20.857Z,150
2016-09-02T14:05:20.442Z,150
2016-09-02T14:06:20.472Z,155
2016-09-02T14:07:20.458Z,150
2016-09-02T14:08:20.416Z,150
2016-09-02T14:09:20.504Z,150
2016-09-02T14:10:20.458Z,150
2016-09-02T14:11:20.481Z,155
2016-09-02T14:12:20.431Z,155
2016-09-02T14:13:20.442Z,160
2016-09-02T14:14:20.569Z,165
2016-09-02T14:15:20.425Z,165
2016-09-02T14:16:20.461Z,170
2016-09-02T14:17:20.440Z,170
2016-09-02T14:18:20.504Z,175
2016-09-02T14:19:20.453Z,180
2016-09-02T14:20:20.427Z,180
2016-09-02T14:21:20.492Z,185
2016-09-02T14:22:20.489Z,185
2016-09-02T14:23:20.539Z,190
2016-09-02T14:24:20.427Z,190
2016-09-02T14:25:20.489Z,195
2016-09-02T14:26:20.500Z,195
2016-09-02T14:27:20.491Z,190
2016-09-02T14:28:20.509Z,190
2016-09-02T14:29:20.505Z,190
2016-09-02T14:30:20.510Z,190
2016-09-02T14:31:20.473Z,185
2016-09-02T14:32:20.549Z,185
2016-09-02T14:33:20.572Z,180
2016-09-02T14:34:20.626Z,175
2016-09-02T14:35:20.592Z,175
2016-09-02T14:36:20.478Z,175
2016-09-02T14:37:20.456Z,170
2016-09-02T14:38:20.626Z,170
2016-09-02T14:39:20.512Z,165
2016-09-02T14:40:20.781Z,165
2016-09-02T14:41:21.705Z,170
2016-09-02T14:42:20.571Z,165
2016-09-02T14:43:20.708Z,165
2016-09-02T14:44:20.529Z,175
2016-09-02T14:45:20.653Z,170
2016-09-02T14:46:20.600Z,175
2016-09-02T14:47:21.098Z,165
2016-09-02T14:48:20.595Z,160
2016-09-02T14:49:20.581Z,165
2016-09-02T14:50:20.613Z,165
2016-09-02T14:51:20.503Z,160
2016-09-02T14:52:20.557Z,165
2016-09-02T14:53:20.706Z,175
2016-09-02T14:54:20.528Z,170
2016-09-02T14:55:20.541Z,170
2016-09-02T14:56:20.578Z,170
2016-09-02T14:57:20.554Z,180
2016-09-02T14:58:20.520Z,180
2016-09-02T14:59:20.518Z,180
2016-09-02T15:00:21.000Z,185
2016-09-02T15:01:20.508Z,185
2016-09-02T15:02:20.500Z,190
2016-09-02T15:03:20.551Z,195
2016-09-02T15:04:20.565Z,200
2016-09-02T15:05:20.502Z,210
2016-09-02T15:06:20.549Z,200
2016-09-02T15:07:20.573Z,205
2016-09-02T15:08:20.583Z,195
2016-09-02T15:09:20.576Z,200
2016-09-02T15:10:20.579Z,190
2016-09-02T15:11:20.545Z,185
2016-09-02T15:12:20.520Z,180
2016-09-02T15:13:20.516Z,180
2016-09-02T15:14:20.568Z,175
2016-09-02T15:15:20.761Z,170
2016-09-02T15:16:20.512Z,170
2016-09-02T15:17:20.748Z,175
2016-09-02T15:18:20.537Z,180
2016-09-02T15:19:20.601Z,190
2016-09-02T15:20:21.047Z,195